JAL4 RJTT-KJFK
Flight info
| Callsign | JAL4 |
|---|---|
| Flight time | N/A |
| Altitude | 33000 |
| Route | INUBO Y808 NOLAX Y812 ADNAP OTR5 KALNA 43N160E 47N170E/N0494F350 50N180E 53N170W 56N160W/N0500F370 DCT CJAYY DCT 57N140W 56N130W DCT HOWSE DCT ANTID DCT ODGOV/N0495F390 DCT WHIST DCT 49N100W DCT KP21C DCT KP15G DCT KP06K DCT KP84Q DCT JHW Q476 WLKES PUCKY1 |
| Aircraft | A35K/H-SDE2E3GHIJ3J4J5LM1ORWXY/LB1D1 |
Departure
| Time | N/A |
|---|---|
| Airport | Tokyo Haneda International Airport (RJTT) |
Arrival
| Time | 2026-05-05 11:04 |
|---|---|
| Airport | John F. Kennedy International Airport (KJFK) |
| Time | Latitude | Longitude | Altitude | Speed | Heading |
|---|---|---|---|---|---|
| 2026-05-05 10:23 | 41.54756 | -76.66971 | 38807 ft | 515 kts | 112° |
| 2026-05-05 10:23 | 41.53522 | -76.62488 | 38818 ft | 515 kts | 112° |
| 2026-05-05 10:23 | 41.51062 | -76.53578 | 38815 ft | 515 kts | 112° |
| 2026-05-05 10:24 | 41.48581 | -76.44612 | 38819 ft | 516 kts | 112° |
| 2026-05-05 10:24 | 41.46091 | -76.35640 | 38836 ft | 516 kts | 112° |
| 2026-05-05 10:25 | 41.43597 | -76.26686 | 38520 ft | 512 kts | 112° |
| 2026-05-05 10:25 | 41.42380 | -76.22327 | 37933 ft | 509 kts | 112° |
| 2026-05-05 10:25 | 41.41144 | -76.17911 | 37257 ft | 507 kts | 112° |
| 2026-05-05 10:26 | 41.39913 | -76.13518 | 36624 ft | 505 kts | 112° |
| 2026-05-05 10:26 | 41.38687 | -76.09153 | 36013 ft | 502 kts | 112° |
| 2026-05-05 10:26 | 41.37464 | -76.04805 | 35375 ft | 501 kts | 112° |
| 2026-05-05 10:26 | 41.36243 | -76.00471 | 34656 ft | 501 kts | 113° |
| 2026-05-05 10:27 | 41.35016 | -75.96126 | 33941 ft | 501 kts | 113° |
| 2026-05-05 10:27 | 41.33788 | -75.91783 | 33145 ft | 501 kts | 113° |
| 2026-05-05 10:27 | 41.32578 | -75.87509 | 32388 ft | 500 kts | 113° |
| 2026-05-05 10:27 | 41.31351 | -75.83188 | 31613 ft | 499 kts | 113° |
| 2026-05-05 10:28 | 41.30125 | -75.78873 | 30828 ft | 498 kts | 113° |
| 2026-05-05 10:28 | 41.28900 | -75.74569 | 30041 ft | 498 kts | 113° |
| 2026-05-05 10:28 | 41.27670 | -75.70255 | 29152 ft | 498 kts | 113° |
| 2026-05-05 10:28 | 41.26421 | -75.66000 | 28570 ft | 490 kts | 116° |
| 2026-05-05 10:29 | 41.25049 | -75.61900 | 28013 ft | 483 kts | 117° |
| 2026-05-05 10:29 | 41.23662 | -75.57865 | 27432 ft | 477 kts | 117° |
| 2026-05-05 10:29 | 41.22316 | -75.53924 | 26893 ft | 472 kts | 117° |
| 2026-05-05 10:29 | 41.20973 | -75.49963 | 26327 ft | 468 kts | 117° |
| 2026-05-05 10:30 | 41.19650 | -75.46048 | 25765 ft | 463 kts | 117° |
| 2026-05-05 10:30 | 41.18338 | -75.42161 | 25199 ft | 459 kts | 117° |
| 2026-05-05 10:30 | 41.17040 | -75.38312 | 24639 ft | 454 kts | 117° |
| 2026-05-05 10:30 | 41.15756 | -75.34508 | 24109 ft | 450 kts | 117° |
| 2026-05-05 10:31 | 41.14483 | -75.30729 | 23564 ft | 447 kts | 117° |
| 2026-05-05 10:31 | 41.13219 | -75.26982 | 22959 ft | 443 kts | 117° |
| 2026-05-05 10:31 | 41.11962 | -75.23269 | 22411 ft | 439 kts | 117° |
| 2026-05-05 10:31 | 41.10731 | -75.19635 | 21858 ft | 437 kts | 117° |
| 2026-05-05 10:32 | 41.09491 | -75.15978 | 21327 ft | 434 kts | 117° |
| 2026-05-05 10:32 | 41.08255 | -75.12334 | 20778 ft | 432 kts | 117° |
| 2026-05-05 10:32 | 41.07028 | -75.08723 | 20244 ft | 429 kts | 117° |
| 2026-05-05 10:32 | 41.05810 | -75.05131 | 19686 ft | 426 kts | 117° |
| 2026-05-05 10:33 | 41.04594 | -75.01563 | 19151 ft | 423 kts | 117° |
| 2026-05-05 10:33 | 41.03387 | -74.98027 | 18604 ft | 419 kts | 117° |
| 2026-05-05 10:33 | 41.02190 | -74.94523 | 18020 ft | 416 kts | 117° |
| 2026-05-05 10:33 | 41.00999 | -74.91042 | 17452 ft | 413 kts | 117° |
| 2026-05-05 10:34 | 40.99895 | -74.87607 | 16887 ft | 412 kts | 112° |
| 2026-05-05 10:34 | 40.99213 | -74.83915 | 16355 ft | 413 kts | 102° |
| 2026-05-05 10:34 | 40.98764 | -74.80166 | 15770 ft | 411 kts | 101° |
| 2026-05-05 10:34 | 40.98344 | -74.76432 | 15215 ft | 409 kts | 101° |
| 2026-05-05 10:35 | 40.97922 | -74.72719 | 14652 ft | 407 kts | 101° |
| 2026-05-05 10:35 | 40.97496 | -74.69029 | 14084 ft | 404 kts | 101° |
| 2026-05-05 10:35 | 40.97069 | -74.65364 | 13504 ft | 402 kts | 101° |
| 2026-05-05 10:35 | 40.96643 | -74.61722 | 12923 ft | 399 kts | 101° |
| 2026-05-05 10:36 | 40.96218 | -74.58111 | 12356 ft | 395 kts | 101° |
| 2026-05-05 10:36 | 40.95802 | -74.54590 | 11821 ft | 392 kts | 101° |
| 2026-05-05 10:36 | 40.95381 | -74.51045 | 11279 ft | 387 kts | 101° |
| 2026-05-05 10:36 | 40.94972 | -74.47595 | 11114 ft | 371 kts | 102° |
| 2026-05-05 10:37 | 40.94580 | -74.44292 | 10979 ft | 355 kts | 102° |
| 2026-05-05 10:37 | 40.94203 | -74.41132 | 10853 ft | 341 kts | 102° |
| 2026-05-05 10:37 | 40.93840 | -74.38101 | 10718 ft | 327 kts | 102° |
| 2026-05-05 10:37 | 40.93490 | -74.35193 | 10580 ft | 314 kts | 102° |
| 2026-05-05 10:38 | 40.93153 | -74.32398 | 10449 ft | 302 kts | 102° |
| 2026-05-05 10:38 | 40.92831 | -74.29740 | 10273 ft | 294 kts | 102° |
| 2026-05-05 10:38 | 40.92508 | -74.27084 | 9980 ft | 291 kts | 102° |
| 2026-05-05 10:38 | 40.92182 | -74.24423 | 9729 ft | 301 kts | 102° |
| 2026-05-05 10:39 | 40.91840 | -74.21645 | 9650 ft | 307 kts | 102° |
| 2026-05-05 10:39 | 40.91501 | -74.18869 | 9191 ft | 307 kts | 102° |
| 2026-05-05 10:39 | 40.91162 | -74.16078 | 8768 ft | 307 kts | 102° |
| 2026-05-05 10:39 | 40.90799 | -74.13297 | 8452 ft | 306 kts | 105° |
| 2026-05-05 10:40 | 40.90024 | -74.10720 | 8172 ft | 300 kts | 124° |
| 2026-05-05 10:40 | 40.88930 | -74.08389 | 7882 ft | 298 kts | 128° |
| 2026-05-05 10:40 | 40.87811 | -74.06135 | 7589 ft | 297 kts | 128° |
| 2026-05-05 10:40 | 40.86680 | -74.03854 | 7281 ft | 297 kts | 127° |
| 2026-05-05 10:41 | 40.85555 | -74.01572 | 6990 ft | 296 kts | 127° |
| 2026-05-05 10:41 | 40.84436 | -73.99295 | 6694 ft | 295 kts | 127° |
| 2026-05-05 10:41 | 40.83318 | -73.97017 | 6393 ft | 295 kts | 127° |
| 2026-05-05 10:41 | 40.82205 | -73.94748 | 6101 ft | 294 kts | 127° |
| 2026-05-05 10:42 | 40.79988 | -73.90224 | 5510 ft | 292 kts | 127° |
| 2026-05-05 10:42 | 40.78888 | -73.87981 | 5213 ft | 291 kts | 127° |
| 2026-05-05 10:42 | 40.77802 | -73.85773 | 4937 ft | 289 kts | 128° |
| 2026-05-05 10:43 | 40.76699 | -73.83556 | 4794 ft | 286 kts | 128° |
| 2026-05-05 10:43 | 40.75608 | -73.81364 | 4660 ft | 287 kts | 128° |
| 2026-05-05 10:43 | 40.74508 | -73.79157 | 4533 ft | 288 kts | 128° |
| 2026-05-05 10:43 | 40.73411 | -73.76955 | 4407 ft | 287 kts | 128° |
| 2026-05-05 10:44 | 40.72315 | -73.74755 | 4295 ft | 287 kts | 128° |
| 2026-05-05 10:44 | 40.71227 | -73.72572 | 4174 ft | 286 kts | 128° |
| 2026-05-05 10:44 | 40.70134 | -73.70381 | 4054 ft | 286 kts | 128° |
| 2026-05-05 10:44 | 40.68982 | -73.68325 | 3947 ft | 280 kts | 141° |
| 2026-05-05 10:45 | 40.67385 | -73.67015 | 3937 ft | 265 kts | 168° |
| 2026-05-05 10:45 | 40.65605 | -73.66681 | 3937 ft | 256 kts | 185° |
| 2026-05-05 10:45 | 40.63847 | -73.66828 | 3904 ft | 250 kts | 199° |
| 2026-05-05 10:45 | 40.62292 | -73.67734 | 3969 ft | 242 kts | 220° |
| 2026-05-05 10:46 | 40.61268 | -73.69417 | 4002 ft | 236 kts | 248° |
| 2026-05-05 10:46 | 40.61051 | -73.71533 | 3996 ft | 238 kts | 275° |
| 2026-05-05 10:46 | 40.61678 | -73.73536 | 4014 ft | 247 kts | 300° |
| 2026-05-05 10:46 | 40.62801 | -73.75273 | 4002 ft | 251 kts | 307° |
| 2026-05-05 10:47 | 40.64021 | -73.76928 | 4001 ft | 252 kts | 308° |
| 2026-05-05 10:47 | 40.65251 | -73.78579 | 3999 ft | 252 kts | 308° |
| 2026-05-05 10:47 | 40.66474 | -73.80225 | 3999 ft | 252 kts | 308° |
| 2026-05-05 10:47 | 40.67500 | -73.82051 | 4003 ft | 246 kts | 295° |
| 2026-05-05 10:48 | 40.68324 | -73.84027 | 4000 ft | 245 kts | 292° |
| 2026-05-05 10:48 | 40.69114 | -73.86019 | 4000 ft | 245 kts | 292° |
| 2026-05-05 10:48 | 40.69902 | -73.88015 | 3981 ft | 245 kts | 292° |
| 2026-05-05 10:48 | 40.70678 | -73.89983 | 3981 ft | 245 kts | 292° |
| 2026-05-05 10:49 | 40.71466 | -73.91978 | 4000 ft | 245 kts | 292° |
| 2026-05-05 10:49 | 40.72244 | -73.93949 | 4000 ft | 245 kts | 292° |
| 2026-05-05 10:49 | 40.73036 | -73.95952 | 4001 ft | 245 kts | 292° |
| 2026-05-05 10:49 | 40.73826 | -73.97949 | 3999 ft | 245 kts | 292° |
| 2026-05-05 10:50 | 40.74617 | -73.99943 | 4000 ft | 245 kts | 292° |
| 2026-05-05 10:50 | 40.75441 | -74.01915 | 4000 ft | 247 kts | 297° |
| 2026-05-05 10:50 | 40.76582 | -74.03641 | 3987 ft | 255 kts | 314° |
| 2026-05-05 10:50 | 40.78153 | -74.04757 | 4001 ft | 268 kts | 337° |
| 2026-05-05 10:51 | 40.80053 | -74.04840 | 3982 ft | 284 kts | 7° |
| 2026-05-05 10:51 | 40.81821 | -74.03602 | 3983 ft | 297 kts | 41° |
| 2026-05-05 10:51 | 40.82900 | -74.01293 | 3982 ft | 299 kts | 75° |
| 2026-05-05 10:51 | 40.82951 | -73.98602 | 3982 ft | 292 kts | 108° |
| 2026-05-05 10:52 | 40.82091 | -73.96244 | 3983 ft | 283 kts | 128° |
| 2026-05-05 10:52 | 40.81184 | -73.93911 | 3980 ft | 290 kts | 113° |
| 2026-05-05 10:52 | 40.80788 | -73.91285 | 3984 ft | 295 kts | 99° |
| 2026-05-05 10:52 | 40.80636 | -73.88615 | 3982 ft | 296 kts | 96° |
| 2026-05-05 10:53 | 40.80527 | -73.85899 | 3979 ft | 296 kts | 95° |
| 2026-05-05 10:53 | 40.80428 | -73.83183 | 3981 ft | 297 kts | 95° |
| 2026-05-05 10:53 | 40.80330 | -73.80464 | 3982 ft | 297 kts | 95° |
| 2026-05-05 10:53 | 40.80233 | -73.77735 | 3986 ft | 297 kts | 95° |
| 2026-05-05 10:54 | 40.80136 | -73.75014 | 3985 ft | 296 kts | 95° |
| 2026-05-05 10:54 | 40.80040 | -73.72311 | 3982 ft | 289 kts | 95° |
| 2026-05-05 10:54 | 40.79951 | -73.69743 | 3966 ft | 272 kts | 96° |
| 2026-05-05 10:54 | 40.79869 | -73.67380 | 3965 ft | 255 kts | 96° |
| 2026-05-05 10:55 | 40.79808 | -73.65114 | 3965 ft | 242 kts | 92° |
| 2026-05-05 10:55 | 40.80248 | -73.62993 | 3988 ft | 239 kts | 57° |
| 2026-05-05 10:55 | 40.81393 | -73.61502 | 4006 ft | 230 kts | 22° |
| 2026-05-05 10:55 | 40.82880 | -73.60741 | 3997 ft | 230 kts | 9° |
| 2026-05-05 10:56 | 40.84427 | -73.60192 | 3988 ft | 230 kts | 7° |
| 2026-05-05 10:56 | 40.85982 | -73.59673 | 3987 ft | 231 kts | 7° |
| 2026-05-05 10:56 | 40.87540 | -73.59195 | 3974 ft | 228 kts | 1° |
| 2026-05-05 10:56 | 40.89059 | -73.59253 | 3984 ft | 215 kts | 337° |
| 2026-05-05 10:57 | 40.90318 | -73.60136 | 4003 ft | 198 kts | 308° |
| 2026-05-05 10:57 | 40.90989 | -73.61625 | 3995 ft | 186 kts | 279° |
| 2026-05-05 10:57 | 40.90970 | -73.63289 | 3986 ft | 182 kts | 253° |
| 2026-05-05 10:57 | 40.90298 | -73.64692 | 3969 ft | 187 kts | 223° |
| 2026-05-05 10:58 | 40.89000 | -73.65314 | 4007 ft | 213 kts | 197° |
| 2026-05-05 10:58 | 40.87476 | -73.65290 | 3992 ft | 224 kts | 180° |
| 2026-05-05 10:58 | 40.85927 | -73.64984 | 3986 ft | 227 kts | 175° |
| 2026-05-05 10:58 | 40.84400 | -73.64453 | 3989 ft | 232 kts | 169° |
| 2026-05-05 10:59 | 40.82855 | -73.63836 | 3989 ft | 231 kts | 172° |
| 2026-05-05 10:59 | 40.81289 | -73.63511 | 3973 ft | 225 kts | 184° |
| 2026-05-05 10:59 | 40.79775 | -73.63749 | 3976 ft | 210 kts | 199° |
| 2026-05-05 10:59 | 40.78503 | -73.64450 | 3822 ft | 188 kts | 216° |
| 2026-05-05 11:00 | 40.77456 | -73.65334 | 3614 ft | 172 kts | 217° |
| 2026-05-05 11:00 | 40.76442 | -73.66142 | 3168 ft | 170 kts | 215° |
| 2026-05-05 11:00 | 40.75423 | -73.66929 | 2609 ft | 171 kts | 215° |
| 2026-05-05 11:00 | 40.74399 | -73.67722 | 2163 ft | 168 kts | 216° |
| 2026-05-05 11:01 | 40.73463 | -73.68448 | 2012 ft | 146 kts | 216° |
| 2026-05-05 11:01 | 40.72664 | -73.69072 | 1999 ft | 125 kts | 217° |
| 2026-05-05 11:01 | 40.71930 | -73.69655 | 2011 ft | 122 kts | 217° |
| 2026-05-05 11:01 | 40.71188 | -73.70216 | 1920 ft | 127 kts | 214° |
| 2026-05-05 11:02 | 40.70386 | -73.70747 | 1552 ft | 130 kts | 214° |
| 2026-05-05 11:02 | 40.69642 | -73.71378 | 1280 ft | 124 kts | 222° |
| 2026-05-05 11:02 | 40.68966 | -73.72052 | 1092 ft | 121 kts | 216° |
| 2026-05-05 11:02 | 40.68227 | -73.72594 | 996 ft | 124 kts | 211° |
| 2026-05-05 11:03 | 40.67471 | -73.73167 | 855 ft | 126 kts | 216° |
| 2026-05-05 11:03 | 40.66717 | -73.73798 | 667 ft | 131 kts | 212° |
| 2026-05-05 11:03 | 40.65921 | -73.74401 | 376 ft | 131 kts | 208° |
| 2026-05-05 11:03 | 40.65131 | -73.75018 | 228 ft | 133 kts | 208° |
| 2026-05-05 11:04 | 40.64324 | -73.75645 | 47 ft | 135 kts | 209° |
| 2026-05-05 11:04 | 40.63605 | -73.76205 | 28 ft | 88 kts | 211° |
| 2026-05-05 11:04 | 40.63312 | -73.76472 | 27 ft | 40 kts | 231° |
| 2026-05-05 11:04 | 40.63242 | -73.76720 | 30 ft | 19 kts | 292° |
| 2026-05-05 11:05 | 40.63310 | -73.76876 | 27 ft | 21 kts | 301° |
| 2026-05-05 11:05 | 40.63388 | -73.77051 | 28 ft | 23 kts | 301° |
| 2026-05-05 11:05 | 40.63474 | -73.77240 | 30 ft | 25 kts | 301° |
| 2026-05-05 11:05 | 40.63530 | -73.77364 | 29 ft | 0 kts | 301° |
| 2026-05-05 11:07 | 40.63531 | -73.77365 | 29 ft | 1 kts | 301° |
| 2026-05-05 11:07 | 40.63561 | -73.77427 | 29 ft | 16 kts | 302° |
| 2026-05-05 11:07 | 40.63646 | -73.77605 | 32 ft | 27 kts | 303° |
| 2026-05-05 11:08 | 40.63608 | -73.77745 | 27 ft | 19 kts | 216° |
| 2026-05-05 11:08 | 40.63494 | -73.77836 | 29 ft | 20 kts | 210° |
| 2026-05-05 11:08 | 40.63406 | -73.77964 | 29 ft | 20 kts | 257° |
| 2026-05-05 11:08 | 40.63451 | -73.78133 | 31 ft | 21 kts | 300° |
| 2026-05-05 11:09 | 40.63528 | -73.78310 | 31 ft | 24 kts | 300° |
| 2026-05-05 11:09 | 40.63614 | -73.78497 | 35 ft | 25 kts | 302° |
| 2026-05-05 11:09 | 40.63709 | -73.78700 | 35 ft | 27 kts | 300° |
| 2026-05-05 11:09 | 40.63811 | -73.78929 | 30 ft | 31 kts | 300° |
| 2026-05-05 11:10 | 40.63927 | -73.79185 | 26 ft | 29 kts | 300° |
| 2026-05-05 11:10 | 40.63993 | -73.79331 | 27 ft | 18 kts | 301° |
| 2026-05-05 11:10 | 40.64048 | -73.79442 | 28 ft | 15 kts | 310° |
| 2026-05-05 11:10 | 40.64144 | -73.79504 | 30 ft | 16 kts | 355° |
| 2026-05-05 11:11 | 40.64267 | -73.79495 | 30 ft | 19 kts | 4° |
| 2026-05-05 11:11 | 40.64413 | -73.79495 | 30 ft | 23 kts | 356° |
| 2026-05-05 11:11 | 40.64553 | -73.79514 | 30 ft | 11 kts | 351° |
| 2026-05-05 11:11 | 40.64611 | -73.79478 | 30 ft | 7 kts | 75° |
| 2026-05-05 11:12 | 40.64616 | -73.79397 | 30 ft | 11 kts | 89° |
| 2026-05-05 11:12 | 40.64605 | -73.79292 | 30 ft | 12 kts | 88° |
| 2026-05-05 11:12 | 40.64612 | -73.79261 | 30 ft | 5 kts | 61° |
| 2026-05-05 11:12 | 40.64662 | -73.79236 | 30 ft | 10 kts | 355° |
| 2026-05-05 11:13 | 40.64688 | -73.79242 | 29 ft | 2 kts | 347° |
| 2026-05-05 11:13 | 40.64696 | -73.79245 | 29 ft | 1 kts | 346° |
| 2026-05-05 11:13 | 40.64699 | -73.79246 | 29 ft | 0 kts | 345° |